Time;durP1;ratioP1;P1;durP2;ratioP2;P2;SDS_P1;SDS_P2;PMS_P1;PMS_P2;Temp;Humidity;BMP_temperature;BMP_pressure;BME280_temperature;BME280_humidity;BME280_pressure;Samples;Min_cycle;Max_cycle;Signal;HPM_P1;HPM_P2
2023/06/21 00:01:16;;;;;;;10.37;4.97;;;;;;;;;;5015526;28;20213;-71
2023/06/21 00:04:20;;;;;;;11.47;5.10;;;;;;;;;;5015550;28;20185;-70
2023/06/21 00:07:24;;;;;;;8.67;4.93;;;;;;;;;;5014969;28;20182;-71
2023/06/21 00:10:29;;;;;;;12.27;4.90;;;;;;;;;;5015316;28;20181;-73
2023/06/21 00:13:33;;;;;;;15.97;4.90;;;;;;;;;;5015648;28;20526;-71
2023/06/21 00:16:38;;;;;;;11.20;5.20;;;;;;;;;;5003304;28;20173;-71
2023/06/21 00:19:41;;;;;;;12.30;5.43;;;;;;;;;;5014757;28;20177;-70
2023/06/21 00:22:46;;;;;;;8.90;4.97;;;;;;;;;;5015161;28;20225;-71
2023/06/21 00:25:50;;;;;;;6.73;4.33;;;;;;;;;;5015093;28;20209;-72
2023/06/21 00:28:54;;;;;;;8.50;4.70;;;;;;;;;;5015288;28;20185;-71
2023/06/21 00:31:58;;;;;;;9.77;5.00;;;;;;;;;;5002909;28;20217;-71
2023/06/21 00:35:02;;;;;;;9.07;5.17;;;;;;;;;;5014431;28;20181;-71
2023/06/21 00:38:06;;;;;;;14.73;5.20;;;;;;;;;;5013922;28;20177;-71
2023/06/21 00:41:11;;;;;;;8.57;5.17;;;;;;;;;;5014936;28;20217;-72
2023/06/21 00:44:15;;;;;;;12.97;5.17;;;;;;;;;;5003058;28;20182;-72
2023/06/21 00:47:19;;;;;;;8.53;4.73;;;;;;;;;;5014213;28;20552;-72
2023/06/21 00:50:24;;;;;;;11.57;4.87;;;;;;;;;;5002610;28;20189;-71
2023/06/21 00:53:30;;;;;;;10.13;4.80;;;;;;;;;;5014871;28;20185;-71
2023/06/21 00:56:34;;;;;;;9.87;4.93;;;;;;;;;;5014027;28;20177;-70
2023/06/21 00:59:39;;;;;;;8.33;5.17;;;;;;;;;;5014689;28;20203;-70
2023/06/21 01:02:43;;;;;;;10.87;5.37;;;;;;;;;;5002390;28;20216;-70
2023/06/21 01:06:02;;;;;;;9.67;4.97;;;;;;;;;;5013489;28;20213;-70
2023/06/21 01:09:34;;;;;;;10.40;5.00;;;;;;;;;;5013573;28;20186;-70
2023/06/21 01:13:15;;;;;;;10.63;4.60;;;;;;;;;;5013311;28;20220;-70
2023/06/21 01:16:24;;;;;;;13.03;4.77;;;;;;;;;;5002654;28;20193;-72
2023/06/21 01:19:42;;;;;;;10.37;4.90;;;;;;;;;;5014135;28;20682;-71
2023/06/21 01:23:33;;;;;;;7.93;4.57;;;;;;;;;;5013237;28;20213;-71
2023/06/21 01:27:35;;;;;;;12.60;5.40;;;;;;;;;;5013153;28;20209;-72
2023/06/21 01:30:41;;;;;;;10.53;4.53;;;;;;;;;;4934400;29;20192;-71
2023/06/21 01:33:45;;;;;;;11.03;5.03;;;;;;;;;;4923776;29;20576;-71
2023/06/21 01:36:49;;;;;;;8.07;4.30;;;;;;;;;;5013012;28;20181;-70
2023/06/21 01:39:54;;;;;;;8.17;4.50;;;;;;;;;;5013011;28;20182;-70
2023/06/21 01:42:58;;;;;;;12.60;4.40;;;;;;;;;;5013212;28;20656;-72
2023/06/21 01:46:03;;;;;;;8.57;4.37;;;;;;;;;;5001823;28;20699;-71
2023/06/21 01:49:09;;;;;;;10.97;4.97;;;;;;;;;;5013153;28;20181;-72
2023/06/21 01:52:14;;;;;;;11.10;4.53;;;;;;;;;;5012860;28;20213;-71
2023/06/21 01:55:19;;;;;;;6.27;4.17;;;;;;;;;;5013079;28;20181;-72
2023/06/21 01:58:23;;;;;;;9.77;4.90;;;;;;;;;;5013610;28;20181;-73
2023/06/21 02:01:28;;;;;;;8.93;4.20;;;;;;;;;;5001608;28;20225;-72
2023/06/21 02:04:35;;;;;;;8.37;4.43;;;;;;;;;;5001949;28;20178;-71
2023/06/21 02:07:39;;;;;;;7.67;4.03;;;;;;;;;;5012832;28;20194;-72
2023/06/21 02:10:46;;;;;;;10.97;4.90;;;;;;;;;;5013608;28;20205;-73
2023/06/21 02:13:52;;;;;;;7.40;4.30;;;;;;;;;;5013822;28;20629;-73
2023/06/21 02:16:56;;;;;;;13.67;5.43;;;;;;;;;;5012794;28;20185;-73
2023/06/21 02:20:00;;;;;;;13.43;5.17;;;;;;;;;;5012765;28;20554;-73
2023/06/21 02:23:05;;;;;;;10.97;5.33;;;;;;;;;;5012557;28;20173;-71
2023/06/21 02:26:10;;;;;;;9.17;4.83;;;;;;;;;;5013682;28;20213;-72
2023/06/21 02:29:14;;;;;;;10.53;4.97;;;;;;;;;;5013412;28;20530;-72
2023/06/21 02:32:19;;;;;;;10.03;5.03;;;;;;;;;;5001303;28;20225;-72
2023/06/21 02:35:23;;;;;;;10.27;4.80;;;;;;;;;;5001069;28;20550;-72
2023/06/21 02:38:27;;;;;;;11.27;5.23;;;;;;;;;;5001043;28;20196;-72
2023/06/21 02:41:31;;;;;;;12.73;5.40;;;;;;;;;;5012387;28;20217;-73
2023/06/21 02:44:35;;;;;;;11.33;5.00;;;;;;;;;;5013194;28;20181;-73
2023/06/21 02:47:39;;;;;;;12.27;5.20;;;;;;;;;;5012248;28;20224;-73
2023/06/21 02:50:43;;;;;;;8.93;5.03;;;;;;;;;;5012489;28;20177;-73
2023/06/21 02:53:48;;;;;;;8.67;4.07;;;;;;;;;;5013315;28;20181;-73
2023/06/21 02:56:52;;;;;;;8.33;4.83;;;;;;;;;;5012142;28;20177;-72
2023/06/21 02:59:59;;;;;;;7.37;4.80;;;;;;;;;;5013241;28;20177;-73
2023/06/21 03:03:03;;;;;;;9.07;4.93;;;;;;;;;;5015914;28;20189;-71
2023/06/21 03:06:07;;;;;;;10.20;5.20;;;;;;;;;;5016017;28;20206;-72
2023/06/21 03:09:11;;;;;;;9.87;4.37;;;;;;;;;;5016056;28;20177;-72
2023/06/21 03:12:15;;;;;;;10.23;4.63;;;;;;;;;;5015730;28;20569;-73
2023/06/21 03:15:20;;;;;;;10.67;4.50;;;;;;;;;;5016497;28;20640;-73
2023/06/21 03:18:24;;;;;;;9.47;4.80;;;;;;;;;;5015909;28;20173;-73
2023/06/21 03:21:28;;;;;;;9.73;4.50;;;;;;;;;;5015449;28;20217;-73
2023/06/21 03:24:32;;;;;;;8.63;4.57;;;;;;;;;;5015439;28;20197;-72
2023/06/21 03:27:40;;;;;;;10.00;5.30;;;;;;;;;;5015908;28;20549;-73
2023/06/21 03:30:44;;;;;;;8.50;5.00;;;;;;;;;;5003993;28;20201;-74
2023/06/21 03:33:49;;;;;;;11.63;5.10;;;;;;;;;;5015581;28;20652;-73
2023/06/21 03:36:55;;;;;;;10.83;5.23;;;;;;;;;;5016368;28;20174;-73
2023/06/21 03:40:04;;;;;;;8.37;5.17;;;;;;;;;;5004310;28;20186;-74
2023/06/21 03:43:08;;;;;;;11.53;4.80;;;;;;;;;;5015933;28;20197;-72
2023/06/21 03:46:12;;;;;;;12.13;5.93;;;;;;;;;;5015314;28;20661;-72
2023/06/21 03:49:22;;;;;;;10.17;5.27;;;;;;;;;;5015390;28;20190;-73
2023/06/21 03:52:26;;;;;;;9.93;5.27;;;;;;;;;;5003706;28;20225;-72
2023/06/21 03:55:30;;;;;;;6.93;4.77;;;;;;;;;;5015225;28;20178;-73
2023/06/21 03:58:35;;;;;;;11.67;5.30;;;;;;;;;;5004199;28;20613;-73
2023/06/21 04:01:39;;;;;;;10.37;5.27;;;;;;;;;;5004056;28;20217;-73
2023/06/21 04:04:47;;;;;;;8.77;5.47;;;;;;;;;;5015087;28;20521;-73
2023/06/21 04:07:51;;;;;;;10.87;5.30;;;;;;;;;;5014630;28;20202;-73
2023/06/21 04:10:55;;;;;;;12.47;6.03;;;;;;;;;;5003149;28;20217;-73
2023/06/21 04:14:01;;;;;;;9.33;5.23;;;;;;;;;;5014583;28;20178;-73
2023/06/21 04:17:06;;;;;;;12.10;4.67;;;;;;;;;;5015605;28;20178;-72
2023/06/21 04:20:11;;;;;;;8.60;5.23;;;;;;;;;;5003410;28;20182;-72
2023/06/21 04:23:16;;;;;;;9.43;4.67;;;;;;;;;;5014604;28;20181;-72
2023/06/21 04:26:22;;;;;;;7.70;4.43;;;;;;;;;;5003236;28;20221;-73
2023/06/21 04:29:26;;;;;;;8.80;4.73;;;;;;;;;;5015194;28;20680;-73
2023/06/21 04:32:31;;;;;;;8.73;4.90;;;;;;;;;;5014102;28;20692;-72
2023/06/21 04:35:36;;;;;;;10.03;4.50;;;;;;;;;;5014971;28;20202;-73
2023/06/21 04:38:40;;;;;;;11.87;4.50;;;;;;;;;;5014136;28;20174;-74
2023/06/21 04:41:47;;;;;;;14.10;5.13;;;;;;;;;;5014195;28;20552;-72
2023/06/21 04:44:51;;;;;;;12.17;5.40;;;;;;;;;;5014894;28;20178;-72
2023/06/21 04:47:57;;;;;;;11.13;5.13;;;;;;;;;;5014184;28;20209;-72
2023/06/21 04:51:02;;;;;;;8.83;5.23;;;;;;;;;;5015080;28;20671;-72
2023/06/21 04:54:06;;;;;;;9.17;5.13;;;;;;;;;;5014105;28;20181;-72
2023/06/21 04:57:12;;;;;;;12.43;5.27;;;;;;;;;;5015111;28;20178;-73
2023/06/21 05:00:17;;;;;;;9.83;4.60;;;;;;;;;;5013763;28;20182;-73
2023/06/21 05:03:21;;;;;;;9.47;5.50;;;;;;;;;;5014433;28;20173;-72
2023/06/21 05:06:26;;;;;;;14.47;5.60;;;;;;;;;;5014098;28;20676;-72
2023/06/21 05:09:30;;;;;;;12.50;5.30;;;;;;;;;;5014308;28;20181;-72
2023/06/21 05:12:35;;;;;;;10.93;5.23;;;;;;;;;;5013320;28;20224;-71
2023/06/21 05:15:39;;;;;;;13.43;5.67;;;;;;;;;;5013372;28;20545;-71
2023/06/21 05:18:43;;;;;;;8.27;5.13;;;;;;;;;;5013699;28;20509;-72
2023/06/21 05:21:47;;;;;;;10.37;5.80;;;;;;;;;;5002123;28;20221;-72
2023/06/21 05:24:51;;;;;;;11.80;5.10;;;;;;;;;;5014239;28;20181;-72
2023/06/21 05:27:56;;;;;;;9.50;5.00;;;;;;;;;;5013406;28;20210;-71
2023/06/21 05:31:00;;;;;;;9.80;5.50;;;;;;;;;;5028740;22;20237;-71
2023/06/21 05:34:04;;;;;;;14.37;5.60;;;;;;;;;;5014264;28;20181;-71
2023/06/21 05:37:08;;;;;;;14.73;5.60;;;;;;;;;;5014063;28;20170;-71
2023/06/21 05:40:12;;;;;;;9.93;5.57;;;;;;;;;;5013644;28;20194;-70
2023/06/21 05:43:16;;;;;;;9.83;5.37;;;;;;;;;;4994444;28;20613;-70
2023/06/21 05:46:20;;;;;;;13.20;5.70;;;;;;;;;;4994309;28;20182;-70
2023/06/21 05:49:25;;;;;;;15.97;5.90;;;;;;;;;;4994066;28;20170;-70
2023/06/21 05:52:29;;;;;;;11.23;5.70;;;;;;;;;;4983617;28;20227;-70
2023/06/21 05:55:33;;;;;;;12.17;5.83;;;;;;;;;;4973763;28;20658;-70
2023/06/21 05:58:38;;;;;;;10.37;5.27;;;;;;;;;;4962956;28;20184;-70
2023/06/21 06:01:42;;;;;;;14.77;5.60;;;;;;;;;;4973632;28;20222;-71
2023/06/21 06:04:46;;;;;;;14.33;5.60;;;;;;;;;;4974896;28;20634;-71
2023/06/21 06:07:51;;;;;;;9.73;5.60;;;;;;;;;;4951415;28;20571;-71
2023/06/21 06:10:55;;;;;;;14.17;6.53;;;;;;;;;;4974428;28;20224;-71
2023/06/21 06:13:59;;;;;;;12.30;5.43;;;;;;;;;;4973457;28;20183;-71
2023/06/21 06:17:03;;;;;;;12.77;6.00;;;;;;;;;;4974359;28;20177;-74
2023/06/21 06:20:08;;;;;;;11.23;5.73;;;;;;;;;;4973596;28;20180;-73
2023/06/21 06:23:12;;;;;;;13.57;5.83;;;;;;;;;;4973616;28;20686;-73
2023/06/21 06:26:26;;;;;;;12.00;5.30;;;;;;;;;;4962327;28;20189;-74
2023/06/21 06:29:30;;;;;;;11.90;5.83;;;;;;;;;;4974065;28;20189;-74
2023/06/21 06:32:34;;;;;;;14.60;6.27;;;;;;;;;;4974530;28;20225;-74
2023/06/21 06:35:39;;;;;;;12.50;5.80;;;;;;;;;;4976896;28;20189;-74
2023/06/21 06:38:50;;;;;;;13.47;6.33;;;;;;;;;;4977322;28;20177;-74
2023/06/21 06:41:54;;;;;;;17.23;6.40;;;;;;;;;;4987763;28;20224;-75
2023/06/21 06:44:59;;;;;;;15.27;6.37;;;;;;;;;;4997031;28;20188;-73
2023/06/21 06:48:03;;;;;;;13.97;5.77;;;;;;;;;;4996468;28;20212;-73
2023/06/21 06:51:07;;;;;;;11.30;5.57;;;;;;;;;;4997147;28;20219;-73
2023/06/21 06:54:11;;;;;;;17.23;6.40;;;;;;;;;;4996362;28;20200;-73
2023/06/21 06:57:16;;;;;;;14.17;6.60;;;;;;;;;;4997450;28;20179;-73
2023/06/21 07:00:20;;;;;;;12.43;5.53;;;;;;;;;;4996391;28;20182;-73
2023/06/21 07:03:24;;;;;;;12.37;6.33;;;;;;;;;;4997323;28;20179;-74
2023/06/21 07:06:28;;;;;;;15.83;6.13;;;;;;;;;;4997352;28;20183;-73
2023/06/21 07:09:33;;;;;;;14.30;6.33;;;;;;;;;;4997032;28;20548;-73
2023/06/21 07:12:37;;;;;;;14.37;6.10;;;;;;;;;;4997124;28;20219;-73
2023/06/21 07:15:41;;;;;;;14.37;6.13;;;;;;;;;;4996971;28;20178;-73
2023/06/21 07:18:45;;;;;;;12.50;5.93;;;;;;;;;;4996794;28;20528;-73
2023/06/21 07:21:50;;;;;;;14.57;5.90;;;;;;;;;;4996071;28;20228;-73
2023/06/21 07:24:54;;;;;;;10.80;6.73;;;;;;;;;;4996776;28;20200;-73
2023/06/21 07:27:58;;;;;;;14.63;6.53;;;;;;;;;;4996907;28;20208;-73
2023/06/21 07:31:05;;;;;;;17.00;6.78;;;;;;;;;;4996346;28;20226;-73
2023/06/21 07:34:10;;;;;;;14.68;6.75;;;;;;;;;;4996532;28;20182;-73
2023/06/21 07:37:14;;;;;;;10.75;6.35;;;;;;;;;;4996532;28;20180;-73
2023/06/21 07:40:18;;;;;;;11.55;6.38;;;;;;;;;;4996590;28;20183;-73
2023/06/21 07:43:22;;;;;;;10.55;6.35;;;;;;;;;;4996673;28;20184;-73
2023/06/21 07:46:26;;;;;;;15.43;6.15;;;;;;;;;;4996399;28;20185;-73
2023/06/21 07:49:30;;;;;;;11.13;6.35;;;;;;;;;;4996524;28;20188;-73
2023/06/21 07:52:34;;;;;;;13.57;7.25;;;;;;;;;;4995370;28;20225;-73
2023/06/21 07:55:38;;;;;;;11.20;6.90;;;;;;;;;;4995398;28;20196;-73
2023/06/21 07:58:43;;;;;;;10.63;6.35;;;;;;;;;;4996337;28;20180;-74
2023/06/21 08:01:47;;;;;;;11.23;6.88;;;;;;;;;;4996128;28;20224;-73
2023/06/21 08:04:51;;;;;;;17.75;6.80;;;;;;;;;;4995968;28;20530;-73
2023/06/21 08:07:58;;;;;;;13.82;6.93;;;;;;;;;;4996337;28;20560;-73
2023/06/21 08:11:03;;;;;;;12.30;7.00;;;;;;;;;;4994999;28;20226;-73
2023/06/21 08:14:07;;;;;;;12.13;6.78;;;;;;;;;;4996060;28;20181;-73
2023/06/21 08:17:11;;;;;;;12.05;7.15;;;;;;;;;;4995773;28;20630;-73
2023/06/21 08:20:16;;;;;;;12.23;7.40;;;;;;;;;;4996028;28;20187;-73
2023/06/21 08:23:20;;;;;;;10.85;6.78;;;;;;;;;;4994803;28;20194;-74
2023/06/21 08:26:24;;;;;;;11.20;7.28;;;;;;;;;;4995611;28;20191;-73
2023/06/21 08:29:28;;;;;;;11.65;5.88;;;;;;;;;;4995701;28;20544;-73
2023/06/21 08:32:32;;;;;;;9.27;5.95;;;;;;;;;;4995179;28;20230;-74
2023/06/21 08:35:37;;;;;;;12.05;6.57;;;;;;;;;;4995329;28;20190;-74
2023/06/21 08:38:41;;;;;;;11.07;6.25;;;;;;;;;;4994294;28;20187;-74
2023/06/21 08:41:46;;;;;;;13.00;6.35;;;;;;;;;;4995232;28;20217;-74
2023/06/21 08:44:51;;;;;;;14.27;6.07;;;;;;;;;;4995270;28;20641;-74
2023/06/21 08:48:00;;;;;;;7.38;5.20;;;;;;;;;;4994950;28;20222;-74
2023/06/21 08:51:05;;;;;;;10.63;5.85;;;;;;;;;;4995400;28;20219;-74
2023/06/21 08:54:11;;;;;;;13.57;6.10;;;;;;;;;;4994844;28;20179;-74
2023/06/21 08:57:22;;;;;;;10.82;5.95;;;;;;;;;;4993607;28;20203;-74
2023/06/21 09:00:30;;;;;;;11.60;6.82;;;;;;;;;;4994495;28;20186;-74
2023/06/21 09:03:57;;;;;;;15.73;5.70;;;;;;;;;;4982869;28;20658;-74
2023/06/21 09:07:01;;;;;;;12.00;5.75;;;;;;;;;;4994361;28;20178;-74
2023/06/21 09:10:07;;;;;;;8.68;5.55;;;;;;;;;;4994746;28;20527;-74
2023/06/21 09:13:12;;;;;;;10.13;5.80;;;;;;;;;;4994281;28;20526;-74
2023/06/21 09:16:18;;;;;;;9.52;5.78;;;;;;;;;;4995361;28;20179;-74
2023/06/21 09:19:23;;;;;;;12.02;6.43;;;;;;;;;;4994178;28;20178;-74
2023/06/21 09:22:27;;;;;;;8.25;5.93;;;;;;;;;;4994721;28;20222;-74
2023/06/21 09:25:31;;;;;;;8.00;5.72;;;;;;;;;;4994821;28;20182;-74
2023/06/21 09:28:37;;;;;;;13.50;6.60;;;;;;;;;;4993894;28;20546;-74
2023/06/21 09:31:41;;;;;;;12.02;6.30;;;;;;;;;;4994570;28;20229;-74
2023/06/21 09:34:45;;;;;;;6.75;5.63;;;;;;;;;;4994874;28;20182;-74
2023/06/21 09:37:49;;;;;;;10.00;6.45;;;;;;;;;;4994329;28;20175;-74
2023/06/21 09:40:53;;;;;;;8.93;6.70;;;;;;;;;;4994487;28;20218;-74
2023/06/21 09:43:59;;;;;;;11.50;7.05;;;;;;;;;;4994444;28;20183;-74
2023/06/21 09:47:04;;;;;;;9.63;6.38;;;;;;;;;;4994477;28;20182;-74
2023/06/21 09:50:10;;;;;;;9.02;6.07;;;;;;;;;;4994410;28;20178;-74
2023/06/21 09:53:22;;;;;;;8.90;5.90;;;;;;;;;;4994071;28;20198;-74
2023/06/21 09:56:27;;;;;;;6.95;5.20;;;;;;;;;;4994323;28;20622;-74
2023/06/21 09:59:36;;;;;;;7.72;4.55;;;;;;;;;;4994151;28;20186;-74
2023/06/21 10:02:41;;;;;;;7.00;5.82;;;;;;;;;;4993375;28;20222;-74
2023/06/21 10:05:55;;;;;;;8.48;5.65;;;;;;;;;;4994188;28;20183;-74
2023/06/21 10:08:59;;;;;;;8.98;5.53;;;;;;;;;;4993281;28;20206;-74
2023/06/21 10:12:04;;;;;;;7.65;6.10;;;;;;;;;;4993897;28;20213;-74
2023/06/21 10:15:11;;;;;;;8.45;5.30;;;;;;;;;;4981998;28;20174;-74
2023/06/21 10:18:16;;;;;;;9.23;5.70;;;;;;;;;;4994038;28;20175;-74
2023/06/21 10:21:22;;;;;;;8.90;6.20;;;;;;;;;;4993085;28;20692;-74
2023/06/21 10:24:28;;;;;;;10.10;6.28;;;;;;;;;;4992874;28;20194;-74
2023/06/21 10:27:33;;;;;;;9.18;6.47;;;;;;;;;;4993928;28;20202;-74
2023/06/21 10:30:39;;;;;;;8.70;6.43;;;;;;;;;;4992800;28;20198;-74
2023/06/21 10:33:45;;;;;;;34.13;5.80;;;;;;;;;;4993886;28;20524;-75
2023/06/21 10:36:53;;;;;;;28.88;6.68;;;;;;;;;;4992814;28;20178;-75
2023/06/21 10:40:03;;;;;;;27.38;5.55;;;;;;;;;;4993648;28;20185;-76
2023/06/21 10:43:08;;;;;;;24.60;6.00;;;;;;;;;;4992742;28;20190;-75
2023/06/21 10:46:12;;;;;;;18.77;5.53;;;;;;;;;;4993508;28;20184;-75
2023/06/21 10:49:17;;;;;;;21.30;5.20;;;;;;;;;;4993687;28;20208;-75
2023/06/21 10:52:23;;;;;;;20.17;5.03;;;;;;;;;;4993484;28;20220;-75
2023/06/21 10:55:28;;;;;;;18.33;5.17;;;;;;;;;;4993717;28;20178;-74
2023/06/21 10:58:33;;;;;;;19.80;4.50;;;;;;;;;;4993346;28;20658;-74
2023/06/21 11:01:36;;;;;;;22.50;4.83;;;;;;;;;;4993586;28;20222;-75
2023/06/21 11:05:11;;;;;;;22.83;5.23;;;;;;;;;;4993851;28;20630;-75
2023/06/21 11:08:16;;;;;;;12.67;4.93;;;;;;;;;;4992565;28;20210;-75
2023/06/21 11:11:28;;;;;;;20.47;4.87;;;;;;;;;;4993268;28;20218;-75
2023/06/21 11:14:32;;;;;;;12.83;5.17;;;;;;;;;;4992650;28;20634;-75
2023/06/21 11:17:37;;;;;;;17.90;4.90;;;;;;;;;;4992732;28;20179;-75
2023/06/21 11:20:51;;;;;;;17.50;4.50;;;;;;;;;;4992990;28;20178;-75
2023/06/21 11:23:56;;;;;;;17.43;5.33;;;;;;;;;;4996738;28;20202;-75
2023/06/21 11:27:05;;;;;;;22.33;5.20;;;;;;;;;;4996252;28;20182;-75
2023/06/21 11:30:12;;;;;;;17.53;4.73;;;;;;;;;;4995842;28;20210;-75
2023/06/21 11:33:20;;;;;;;18.83;4.80;;;;;;;;;;5027736;23;20237;-74
2023/06/21 11:36:32;;;;;;;25.90;5.17;;;;;;;;;;5016155;28;20687;-75
2023/06/21 11:39:38;;;;;;;19.70;5.57;;;;;;;;;;5015884;28;20178;-74
2023/06/21 11:42:47;;;;;;;13.07;5.50;;;;;;;;;;5015508;28;20209;-74
2023/06/21 11:46:02;;;;;;;18.17;4.93;;;;;;;;;;5015211;28;20185;-75
2023/06/21 11:49:07;;;;;;;20.13;5.33;;;;;;;;;;5015079;28;20696;-74
2023/06/21 11:52:12;;;;;;;13.97;5.27;;;;;;;;;;5015000;28;20209;-74
2023/06/21 11:55:17;;;;;;;20.10;5.67;;;;;;;;;;5015813;28;20521;-74
2023/06/21 11:58:22;;;;;;;16.57;5.03;;;;;;;;;;5015020;28;20178;-74
2023/06/21 12:01:27;;;;;;;17.80;4.80;;;;;;;;;;5015665;28;20566;-74
2023/06/21 12:04:31;;;;;;;16.07;4.93;;;;;;;;;;5015120;28;20182;-74
2023/06/21 12:07:35;;;;;;;14.83;4.67;;;;;;;;;;5015763;28;20188;-74
2023/06/21 12:10:40;;;;;;;14.97;4.27;;;;;;;;;;5014679;28;20178;-74
2023/06/21 12:13:44;;;;;;;13.20;3.50;;;;;;;;;;5011472;28;20187;-74
2023/06/21 12:16:52;;;;;;;13.07;3.97;;;;;;;;;;5014382;28;20524;-74
2023/06/21 12:20:01;;;;;;;16.37;4.37;;;;;;;;;;5015599;28;20177;-74
2023/06/21 12:23:09;;;;;;;12.07;4.32;;;;;;;;;;5014252;28;20668;-74
2023/06/21 12:26:18;;;;;;;12.07;3.95;;;;;;;;;;5015350;28;20197;-74
2023/06/21 12:29:21;;;;;;;13.15;3.85;;;;;;;;;;5014931;28;20547;-74
2023/06/21 12:32:26;;;;;;;17.35;4.43;;;;;;;;;;5013998;28;20679;-74
2023/06/21 12:35:35;;;;;;;15.40;4.22;;;;;;;;;;5003103;28;20179;-74
2023/06/21 12:38:42;;;;;;;15.32;4.57;;;;;;;;;;5014085;28;20205;-74
2023/06/21 12:41:47;;;;;;;10.48;3.83;;;;;;;;;;5014448;28;20617;-74
2023/06/21 12:44:56;;;;;;;10.00;2.97;;;;;;;;;;5014007;28;20187;-75
2023/06/21 12:48:00;;;;;;;10.05;4.00;;;;;;;;;;5003215;28;20189;-75
2023/06/21 12:51:05;;;;;;;13.80;4.22;;;;;;;;;;5014554;28;20346;-74
2023/06/21 12:54:14;;;;;;;11.18;3.42;;;;;;;;;;5013762;28;20179;-74
2023/06/21 12:57:24;;;;;;;10.05;3.45;;;;;;;;;;5014876;28;20196;-74
2023/06/21 13:00:29;;;;;;;8.50;3.70;;;;;;;;;;5013624;28;20189;-74
2023/06/21 13:03:33;;;;;;;14.65;3.60;;;;;;;;;;5013608;28;20527;-74
2023/06/21 13:06:38;;;;;;;7.25;2.78;;;;;;;;;;5013828;28;20192;-74
2023/06/21 13:09:42;;;;;;;10.60;3.58;;;;;;;;;;5013530;28;20217;-74
2023/06/21 13:12:46;;;;;;;9.85;3.78;;;;;;;;;;5014330;28;20217;-74
2023/06/21 13:15:51;;;;;;;7.32;2.63;;;;;;;;;;5013593;28;20185;-73
2023/06/21 13:18:55;;;;;;;10.65;3.03;;;;;;;;;;5013687;28;20176;-74
2023/06/21 13:21:59;;;;;;;10.40;3.08;;;;;;;;;;5014390;28;20556;-75
2023/06/21 13:25:04;;;;;;;7.68;3.03;;;;;;;;;;5014508;28;20185;-75
2023/06/21 13:28:08;;;;;;;8.02;2.85;;;;;;;;;;5014452;28;20192;-75
2023/06/21 13:31:13;;;;;;;8.93;2.70;;;;;;;;;;5013445;28;20209;-75
2023/06/21 13:34:17;;;;;;;10.27;3.13;;;;;;;;;;5013708;28;20204;-76
2023/06/21 13:37:21;;;;;;;7.85;3.00;;;;;;;;;;5014184;28;20537;-75
2023/06/21 13:40:25;;;;;;;11.65;3.08;;;;;;;;;;5014230;28;20197;-75
2023/06/21 13:43:30;;;;;;;8.05;2.90;;;;;;;;;;5013068;28;20176;-75
2023/06/21 13:46:35;;;;;;;8.23;3.25;;;;;;;;;;5014216;28;20625;-75
2023/06/21 13:49:39;;;;;;;7.38;2.70;;;;;;;;;;5013732;28;20212;-75
2023/06/21 13:52:43;;;;;;;8.30;3.28;;;;;;;;;;5012727;28;20222;-76
2023/06/21 13:55:48;;;;;;;7.28;3.05;;;;;;;;;;5013524;28;20186;-75
2023/06/21 13:58:52;;;;;;;8.93;2.90;;;;;;;;;;4990586;28;20186;-75
2023/06/21 14:01:56;;;;;;;8.98;3.00;;;;;;;;;;5014092;28;20219;-75
2023/06/21 14:05:00;;;;;;;7.28;3.10;;;;;;;;;;5001638;28;20175;-75
2023/06/21 14:08:05;;;;;;;11.02;3.67;;;;;;;;;;5013048;28;20179;-75
2023/06/21 14:11:10;;;;;;;6.70;2.70;;;;;;;;;;5013287;28;20225;-75
2023/06/21 14:14:14;;;;;;;8.85;3.47;;;;;;;;;;5013495;28;20176;-74
2023/06/21 14:17:19;;;;;;;7.65;3.30;;;;;;;;;;5013609;28;20176;-74
2023/06/21 14:20:23;;;;;;;12.00;3.63;;;;;;;;;;5012748;28;20178;-75
2023/06/21 14:23:27;;;;;;;10.32;3.22;;;;;;;;;;5013279;28;20190;-75
2023/06/21 14:26:31;;;;;;;8.02;3.53;;;;;;;;;;5013442;28;20182;-75
2023/06/21 14:29:35;;;;;;;7.85;2.63;;;;;;;;;;5013114;28;20228;-74
2023/06/21 14:32:40;;;;;;;9.38;3.35;;;;;;;;;;5012940;28;20240;-75
2023/06/21 14:35:44;;;;;;;5.80;2.63;;;;;;;;;;5013383;28;20178;-75
2023/06/21 14:38:48;;;;;;;9.68;3.25;;;;;;;;;;5013052;28;20181;-74
2023/06/21 14:41:52;;;;;;;8.50;3.25;;;;;;;;;;5013192;28;20213;-74
2023/06/21 14:44:57;;;;;;;9.73;3.17;;;;;;;;;;5013140;28;20189;-75
2023/06/21 14:48:01;;;;;;;8.25;3.05;;;;;;;;;;5012193;28;20189;-74
2023/06/21 14:51:10;;;;;;;8.45;3.13;;;;;;;;;;5012348;28;20229;-75
2023/06/21 14:54:15;;;;;;;6.93;3.10;;;;;;;;;;5013426;28;20190;-74
2023/06/21 14:57:19;;;;;;;9.73;3.60;;;;;;;;;;5016408;28;20656;-74
2023/06/21 15:00:23;;;;;;;8.45;3.10;;;;;;;;;;5004869;28;20194;-75
2023/06/21 15:03:27;;;;;;;6.10;2.90;;;;;;;;;;5016951;28;20637;-75
2023/06/21 15:06:32;;;;;;;11.38;3.33;;;;;;;;;;5016133;28;20181;-75
2023/06/21 15:09:37;;;;;;;9.63;2.92;;;;;;;;;;5004517;28;20300;-75
2023/06/21 15:12:41;;;;;;;6.32;3.00;;;;;;;;;;5015899;28;20210;-75
2023/06/21 15:15:45;;;;;;;10.57;3.00;;;;;;;;;;5016518;28;20178;-76
2023/06/21 15:18:49;;;;;;;13.20;3.28;;;;;;;;;;5016708;28;20186;-74
2023/06/21 15:21:54;;;;;;;8.15;3.28;;;;;;;;;;5016278;28;20213;-75
2023/06/21 15:24:59;;;;;;;10.18;3.42;;;;;;;;;;5016671;28;20193;-75
2023/06/21 15:28:03;;;;;;;6.82;3.47;;;;;;;;;;5015791;28;20636;-74
2023/06/21 15:31:07;;;;;;;7.43;3.05;;;;;;;;;;5015248;28;20233;-74
2023/06/21 15:34:12;;;;;;;12.63;3.10;;;;;;;;;;5015408;28;20549;-75
2023/06/21 15:37:17;;;;;;;7.72;3.33;;;;;;;;;;5016177;28;20181;-75
2023/06/21 15:40:21;;;;;;;4.43;2.30;;;;;;;;;;5015191;28;20178;-75
2023/06/21 15:43:25;;;;;;;5.70;3.00;;;;;;;;;;5016432;28;20632;-75
2023/06/21 15:46:29;;;;;;;7.68;3.25;;;;;;;;;;5015963;28;20194;-75
2023/06/21 15:49:33;;;;;;;9.75;3.30;;;;;;;;;;5016381;28;20185;-74
2023/06/21 15:52:39;;;;;;;7.85;3.08;;;;;;;;;;5003747;28;20221;-75
2023/06/21 15:55:43;;;;;;;4.25;2.65;;;;;;;;;;5015927;28;20196;-75
2023/06/21 15:58:47;;;;;;;11.48;3.53;;;;;;;;;;5015763;28;20181;-74
2023/06/21 16:01:51;;;;;;;10.30;3.03;;;;;;;;;;5015536;28;20215;-74
2023/06/21 16:04:55;;;;;;;7.03;3.28;;;;;;;;;;5003696;28;20183;-75
2023/06/21 16:07:59;;;;;;;11.57;3.35;;;;;;;;;;5014920;28;20528;-75
2023/06/21 16:11:03;;;;;;;9.90;3.38;;;;;;;;;;5003244;28;20232;-75
2023/06/21 16:14:07;;;;;;;10.02;3.05;;;;;;;;;;5015585;28;20180;-75
2023/06/21 16:17:11;;;;;;;11.48;3.00;;;;;;;;;;5015840;28;20517;-75
2023/06/21 16:20:16;;;;;;;9.80;2.78;;;;;;;;;;5014654;28;20176;-75
2023/06/21 16:23:20;;;;;;;7.90;3.00;;;;;;;;;;5015406;28;20183;-75
2023/06/21 16:26:25;;;;;;;9.90;3.25;;;;;;;;;;5015507;28;20179;-75
2023/06/21 16:29:29;;;;;;;6.40;3.17;;;;;;;;;;5014464;28;20188;-74
2023/06/21 16:32:33;;;;;;;7.72;2.88;;;;;;;;;;5014899;28;20227;-75
2023/06/21 16:35:38;;;;;;;8.00;3.28;;;;;;;;;;5015268;28;20189;-75
2023/06/21 16:38:42;;;;;;;7.45;3.00;;;;;;;;;;5015107;28;20180;-75
2023/06/21 16:41:46;;;;;;;4.53;2.40;;;;;;;;;;5014369;28;20547;-75
2023/06/21 16:44:50;;;;;;;6.45;3.00;;;;;;;;;;5002853;28;20175;-75
2023/06/21 16:47:55;;;;;;;8.32;3.10;;;;;;;;;;5014792;28;20196;-74
2023/06/21 16:50:59;;;;;;;7.80;2.72;;;;;;;;;;5014559;28;20234;-74
2023/06/21 16:54:03;;;;;;;9.25;3.00;;;;;;;;;;5013974;28;20179;-75
2023/06/21 16:57:07;;;;;;;6.65;2.53;;;;;;;;;;5014772;28;20185;-76
2023/06/21 17:00:11;;;;;;;5.47;2.67;;;;;;;;;;5013790;28;20183;-74
2023/06/21 17:03:16;;;;;;;8.65;3.17;;;;;;;;;;5013852;28;20630;-74
2023/06/21 17:06:23;;;;;;;9.43;3.30;;;;;;;;;;5013803;28;20519;-74
2023/06/21 17:09:28;;;;;;;5.57;2.97;;;;;;;;;;5013700;28;20185;-74
2023/06/21 17:12:32;;;;;;;8.15;2.70;;;;;;;;;;5013640;28;20555;-74
2023/06/21 17:15:36;;;;;;;6.40;2.88;;;;;;;;;;5002221;28;20189;-74
2023/06/21 17:18:41;;;;;;;7.80;3.03;;;;;;;;;;5001881;28;20177;-74
2023/06/21 17:21:45;;;;;;;8.07;2.95;;;;;;;;;;5013388;28;20211;-75
2023/06/21 17:24:51;;;;;;;9.05;3.58;;;;;;;;;;5013210;28;20207;-75
2023/06/21 17:27:56;;;;;;;10.55;3.20;;;;;;;;;;5014276;28;20184;-74
2023/06/21 17:31:00;;;;;;;10.50;3.58;;;;;;;;;;5013381;28;20230;-74
2023/06/21 17:34:04;;;;;;;7.22;3.35;;;;;;;;;;5028432;22;20696;-71
2023/06/21 17:37:08;;;;;;;10.18;3.15;;;;;;;;;;5013910;28;20646;-72
2023/06/21 17:40:12;;;;;;;10.00;4.50;;;;;;;;;;5013266;28;20180;-72
2023/06/21 17:43:16;;;;;;;7.03;3.20;;;;;;;;;;5004897;28;20183;-72
2023/06/21 17:46:20;;;;;;;5.55;2.92;;;;;;;;;;4993328;28;20181;-72
2023/06/21 17:49:24;;;;;;;6.88;3.60;;;;;;;;;;4994651;28;20628;-72
2023/06/21 17:52:30;;;;;;;7.15;3.10;;;;;;;;;;4982314;28;20205;-72
2023/06/21 17:55:35;;;;;;;7.53;3.22;;;;;;;;;;4993201;28;20186;-72
2023/06/21 17:58:39;;;;;;;6.53;3.40;;;;;;;;;;4993150;28;20189;-71
2023/06/21 18:01:43;;;;;;;6.38;2.85;;;;;;;;;;4993802;28;20218;-72
2023/06/21 18:04:46;;;;;;;11.65;4.05;;;;;;;;;;4993765;28;20205;-72
2023/06/21 18:07:50;;;;;;;11.75;3.63;;;;;;;;;;4994016;28;20181;-72
2023/06/21 18:10:56;;;;;;;10.00;3.07;;;;;;;;;;4993597;28;20598;-72
2023/06/21 18:14:00;;;;;;;4.60;3.20;;;;;;;;;;4993678;28;20198;-72
2023/06/21 18:17:05;;;;;;;5.93;3.50;;;;;;;;;;5004136;28;20212;-72
2023/06/21 18:20:09;;;;;;;9.85;3.67;;;;;;;;;;4993089;28;20179;-72
2023/06/21 18:23:14;;;;;;;7.60;3.13;;;;;;;;;;4992967;28;20178;-72